createdAt,value
2019-05-07T00:01:23.263Z,36.38
2019-05-07T00:03:54.681Z,36.53
2019-05-07T00:06:25.914Z,36.70
2019-05-07T00:08:57.556Z,36.96
2019-05-07T00:11:28.888Z,37.05
2019-05-07T00:14:00.134Z,37.22
2019-05-07T00:16:32.520Z,37.26
2019-05-07T00:19:03.656Z,37.30
2019-05-07T00:21:35.010Z,37.42
2019-05-07T00:24:06.942Z,37.52
2019-05-07T00:26:39.606Z,37.40
2019-05-07T00:29:12.986Z,37.62
2019-05-07T00:31:44.213Z,37.59
2019-05-07T00:34:17.253Z,37.57
2019-05-07T00:37:08.421Z,37.69
2019-05-07T00:39:42.421Z,37.79
2019-05-07T00:42:22.077Z,37.67
2019-05-07T00:45:16.859Z,37.97
2019-05-07T00:47:36.685Z,38.74
2019-05-07T00:50:09.654Z,38.90
2019-05-07T00:52:42.963Z,38.75
2019-05-07T00:55:14.098Z,38.43
2019-05-07T00:57:45.557Z,38.28
2019-05-07T01:00:16.700Z,38.17
2019-05-07T01:02:47.801Z,38.12
2019-05-07T01:05:19.316Z,37.99
2019-05-07T01:07:52.769Z,38.38
2019-05-07T01:10:23.851Z,38.40
2019-05-07T01:12:55.328Z,38.35
2019-05-07T01:15:31.005Z,38.13
2019-05-07T01:17:59.961Z,38.11
2019-05-07T01:20:32.950Z,38.13
2019-05-07T01:23:03.994Z,38.47
2019-05-07T01:25:35.443Z,39.30
2019-05-07T01:28:06.683Z,39.51
2019-05-07T01:30:38.349Z,39.43
2019-05-07T01:33:12.240Z,39.76
2019-05-07T01:35:45.085Z,39.60
2019-05-07T01:38:17.832Z,39.50
2019-05-07T01:40:49.293Z,39.93
2019-05-07T01:43:22.654Z,39.46
2019-05-07T01:45:53.737Z,39.34
2019-05-07T01:48:24.636Z,39.56
2019-05-07T01:50:56.045Z,39.65
2019-05-07T01:53:27.379Z,39.67
2019-05-07T01:55:58.795Z,39.56
2019-05-07T01:58:30.195Z,39.32
2019-05-07T02:01:02.825Z,39.66
2019-05-07T02:03:52.838Z,39.82
2019-05-07T02:06:25.726Z,40.22
2019-05-07T02:09:10.229Z,40.11
2019-05-07T02:11:46.486Z,40.11
2019-05-07T02:14:18.140Z,39.74
2019-05-07T02:16:49.491Z,39.72
2019-05-07T02:19:22.021Z,39.53
2019-05-07T02:21:53.326Z,39.64
2019-05-07T02:24:24.576Z,39.63
2019-05-07T02:26:55.924Z,39.68
2019-05-07T02:29:27.388Z,39.58
2019-05-07T02:31:58.802Z,39.73
2019-05-07T02:34:30.219Z,40.03
2019-05-07T02:37:04.466Z,39.86
2019-05-07T02:39:37.304Z,40.03
2019-05-07T02:42:09.482Z,39.96
2019-05-07T02:44:58.445Z,39.87
2019-05-07T02:47:33.094Z,40.10
2019-05-07T02:50:09.477Z,39.84
2019-05-07T02:52:53.762Z,39.54
2019-05-07T02:55:28.273Z,39.72
2019-05-07T02:58:03.237Z,39.81
2019-05-07T03:00:33.347Z,39.89
2019-05-07T03:03:04.825Z,39.65
2019-05-07T03:05:36.185Z,39.50
2019-05-07T03:08:07.570Z,39.05
2019-05-07T03:10:38.797Z,39.36
2019-05-07T03:13:13.440Z,39.33
2019-05-07T03:15:43.746Z,39.16
2019-05-07T03:18:18.812Z,39.55
2019-05-07T03:20:49.529Z,39.17
2019-05-07T03:23:22.963Z,39.13
2019-05-07T03:25:55.704Z,38.98
2019-05-07T03:28:27.270Z,38.77
2019-05-07T03:31:05.751Z,38.54
2019-05-07T03:33:37.332Z,38.56
2019-05-07T03:36:09.532Z,37.83
2019-05-07T03:38:43.732Z,37.93
2019-05-07T03:41:13.954Z,37.39
2019-05-07T03:43:45.309Z,37.57
2019-05-07T03:46:18.249Z,37.64
2019-05-07T03:48:49.523Z,37.43
2019-05-07T03:51:23.538Z,37.64
2019-05-07T03:53:54.350Z,37.78
2019-05-07T03:56:25.445Z,36.55
2019-05-07T03:58:57.045Z,35.82
2019-05-07T04:01:28.481Z,35.74
2019-05-07T04:03:59.791Z,35.68
2019-05-07T04:06:33.215Z,35.46
2019-05-07T04:09:05.476Z,35.43
2019-05-07T04:11:36.531Z,35.13
2019-05-07T04:14:09.314Z,35.66
2019-05-07T04:16:40.359Z,35.21
2019-05-07T04:19:13.246Z,35.04
2019-05-07T04:21:44.600Z,34.80
2019-05-07T04:24:17.597Z,34.66
2019-05-07T04:26:53.503Z,34.66
2019-05-07T04:29:23.470Z,34.23
2019-05-07T04:31:54.621Z,34.16
2019-05-07T04:34:45.777Z,34.22
2019-05-07T04:37:17.085Z,34.09
2019-05-07T04:39:54.302Z,33.92
2019-05-07T04:42:25.664Z,33.75
2019-05-07T04:44:57.152Z,33.57
2019-05-07T04:47:38.453Z,33.69
2019-05-07T04:50:03.833Z,33.69
2019-05-07T04:52:39.023Z,33.65
2019-05-07T04:55:13.580Z,33.52
2019-05-07T04:57:43.843Z,33.50
2019-05-07T05:00:16.485Z,33.47
2019-05-07T05:02:55.193Z,33.43
2019-05-07T05:05:26.645Z,33.36
2019-05-07T05:07:57.995Z,33.25
2019-05-07T05:10:29.242Z,33.20
2019-05-07T05:13:02.933Z,33.25
2019-05-07T05:15:33.272Z,33.27
2019-05-07T05:18:04.318Z,33.31
2019-05-07T05:20:37.368Z,33.05
2019-05-07T05:23:13.164Z,32.86
2019-05-07T05:25:45.032Z,32.62
2019-05-07T05:28:16.280Z,32.39
2019-05-07T05:30:49.939Z,32.18
2019-05-07T05:33:23.407Z,31.96
2019-05-07T05:35:54.225Z,31.83
2019-05-07T05:38:25.370Z,32.02
2019-05-07T05:40:56.926Z,32.23
2019-05-07T05:43:31.930Z,32.23
2019-05-07T05:46:12.066Z,32.33
2019-05-07T05:48:43.594Z,32.52
2019-05-07T05:51:33.061Z,32.39
2019-05-07T05:54:15.261Z,32.32
2019-05-07T05:56:52.007Z,32.36
2019-05-07T05:59:32.490Z,32.20
2019-05-07T06:02:14.501Z,32.13
2019-05-07T06:04:56.216Z,31.86
2019-05-07T06:07:42.737Z,32.24
2019-05-07T06:10:15.715Z,32.30
2019-05-07T06:12:52.360Z,32.29
2019-05-07T06:15:25.384Z,32.25
2019-05-07T06:17:58.401Z,32.22
2019-05-07T06:20:32.073Z,32.18
2019-05-07T06:23:12.878Z,32.20
2019-05-07T06:25:45.029Z,31.99
2019-05-07T06:28:16.175Z,31.84
2019-05-07T06:30:47.216Z,31.81
2019-05-07T06:33:18.670Z,32.04
2019-05-07T06:35:51.909Z,32.16
2019-05-07T06:38:24.005Z,32.33
2019-05-07T06:40:59.996Z,32.32
2019-05-07T06:43:32.947Z,32.36
2019-05-07T06:46:05.672Z,32.32
2019-05-07T06:48:42.313Z,32.36
2019-05-07T06:51:09.989Z,32.65
2019-05-07T06:53:42.256Z,32.29
2019-05-07T06:56:13.538Z,32.00
2019-05-07T06:58:49.085Z,32.16
2019-05-07T07:01:24.714Z,32.34
2019-05-07T07:04:10.032Z,32.74
2019-05-07T07:06:49.052Z,32.32
2019-05-07T07:09:27.506Z,31.97
2019-05-07T07:12:02.020Z,32.02
2019-05-07T07:14:34.160Z,31.88
2019-05-07T07:17:05.417Z,31.23
2019-05-07T07:19:36.771Z,31.11
2019-05-07T07:22:08.260Z,30.76
2019-05-07T07:24:39.654Z,30.75
2019-05-07T07:27:13.164Z,30.09
2019-05-07T07:30:03.681Z,29.64
2019-05-07T07:32:36.771Z,29.51
2019-05-07T07:35:09.972Z,29.24
2019-05-07T07:37:43.023Z,29.29
2019-05-07T07:40:22.526Z,28.92
2019-05-07T07:42:54.590Z,28.47
2019-05-07T07:45:25.826Z,28.31
2019-05-07T07:47:57.276Z,27.50
2019-05-07T07:50:28.815Z,27.29
2019-05-07T07:53:02.330Z,27.19
2019-05-07T07:55:34.548Z,27.29
2019-05-07T07:58:07.599Z,27.12
2019-05-07T08:00:49.501Z,27.58
2019-05-07T08:03:22.600Z,27.52
2019-05-07T08:05:53.760Z,27.40
2019-05-07T08:08:25.201Z,27.36
2019-05-07T08:10:56.352Z,27.18
2019-05-07T08:13:27.704Z,27.42
2019-05-07T08:15:59.154Z,27.22
2019-05-07T08:18:32.609Z,27.08
2019-05-07T08:21:03.493Z,26.88
2019-05-07T08:23:35.055Z,26.61
2019-05-07T08:26:06.096Z,26.52
2019-05-07T08:28:37.023Z,26.46
2019-05-07T08:31:18.828Z,26.03
2019-05-07T08:34:03.707Z,26.02
2019-05-07T08:36:35.774Z,25.71
2019-05-07T08:39:08.665Z,25.70
2019-05-07T08:41:39.638Z,25.34
2019-05-07T08:44:15.765Z,25.21
2019-05-07T08:46:49.183Z,24.69
2019-05-07T08:49:33.463Z,24.65
2019-05-07T08:52:03.775Z,24.48
2019-05-07T08:54:35.217Z,24.34
2019-05-07T08:57:06.253Z,24.19
2019-05-07T08:59:37.704Z,24.21
2019-05-07T09:02:08.923Z,24.47
2019-05-07T09:04:41.740Z,24.47
2019-05-07T09:07:13.261Z,24.44
2019-05-07T09:09:44.654Z,24.35
2019-05-07T09:12:15.692Z,24.21
2019-05-07T09:14:46.691Z,24.09
2019-05-07T09:17:18.193Z,23.91
2019-05-07T09:19:52.183Z,24.11
2019-05-07T09:22:23.140Z,24.27
2019-05-07T09:24:54.302Z,24.00
2019-05-07T09:27:27.277Z,23.69
2019-05-07T09:30:03.061Z,23.28
2019-05-07T09:32:37.473Z,23.15
2019-05-07T09:35:12.388Z,23.00
2019-05-07T09:37:43.585Z,23.24
2019-05-07T09:40:14.909Z,23.18
2019-05-07T09:42:46.164Z,23.07
2019-05-07T09:45:17.606Z,22.83
2019-05-07T09:47:48.972Z,22.31
2019-05-07T09:50:21.887Z,22.22
2019-05-07T09:52:53.199Z,22.10
2019-05-07T09:55:24.462Z,22.16
2019-05-07T09:57:55.600Z,21.90
2019-05-07T10:00:27.058Z,22.12
2019-05-07T10:02:58.425Z,22.33
2019-05-07T10:05:31.953Z,22.39
2019-05-07T10:08:02.591Z,22.18
2019-05-07T10:10:33.700Z,21.83
2019-05-07T10:13:12.085Z,21.86
2019-05-07T10:15:42.866Z,21.38
2019-05-07T10:18:15.844Z,21.21
2019-05-07T10:20:47.194Z,21.46
2019-05-07T10:23:22.991Z,21.24
2019-05-07T10:25:53.999Z,20.95
2019-05-07T10:28:25.046Z,20.61
2019-05-07T10:30:56.603Z,20.57
2019-05-07T10:33:27.849Z,20.57
2019-05-07T10:36:01.937Z,20.58
2019-05-07T10:38:33.420Z,20.55
2019-05-07T10:41:04.772Z,20.62
2019-05-07T10:43:36.138Z,20.50
2019-05-07T10:46:24.079Z,20.53
2019-05-07T10:49:09.659Z,20.62
2019-05-07T10:51:42.539Z,21.01
2019-05-07T10:54:13.791Z,20.74
2019-05-07T10:56:45.146Z,20.44
2019-05-07T10:59:16.496Z,19.92
2019-05-07T11:01:51.875Z,20.20
2019-05-07T11:04:22.482Z,20.40
2019-05-07T11:06:53.831Z,20.83
2019-05-07T11:09:25.284Z,21.01
2019-05-07T11:11:56.737Z,21.28
2019-05-07T11:14:27.981Z,21.76
2019-05-07T11:17:02.618Z,21.80
2019-05-07T11:19:33.290Z,21.78
2019-05-07T11:22:04.295Z,22.04
2019-05-07T11:24:35.758Z,22.23
2019-05-07T11:27:06.992Z,22.27
2019-05-07T11:29:38.350Z,22.24
2019-05-07T11:32:09.803Z,22.04
2019-05-07T11:34:42.888Z,21.89
2019-05-07T11:37:14.264Z,21.89
2019-05-07T11:39:45.795Z,22.29
2019-05-07T11:42:22.009Z,22.59
2019-05-07T11:44:54.983Z,22.62
2019-05-07T11:47:31.909Z,22.95
2019-05-07T11:50:22.622Z,23.34
2019-05-07T11:53:01.575Z,23.74
2019-05-07T11:55:33.030Z,23.93
2019-05-07T11:58:05.339Z,24.22
2019-05-07T12:00:53.856Z,24.79
2019-05-07T12:03:25.349Z,24.72
2019-05-07T12:05:56.729Z,24.93
2019-05-07T12:08:39.331Z,25.53
2019-05-07T12:11:02.345Z,25.60
2019-05-07T12:13:33.686Z,25.74
2019-05-07T12:16:04.835Z,25.92
2019-05-07T12:18:36.168Z,26.11
2019-05-07T12:21:20.015Z,26.36
2019-05-07T12:23:42.165Z,26.54
2019-05-07T12:26:13.398Z,26.42
2019-05-07T12:28:45.070Z,26.48
2019-05-07T12:31:35.014Z,26.44
2019-05-07T12:34:08.641Z,26.44
2019-05-07T12:36:40.077Z,26.16
2019-05-07T12:39:12.813Z,26.38
2019-05-07T12:41:44.349Z,26.49
2019-05-07T12:44:15.885Z,26.52
2019-05-07T12:46:48.049Z,26.54
2019-05-07T12:49:19.198Z,26.40
2019-05-07T12:51:55.558Z,26.41
2019-05-07T12:54:28.567Z,25.52
2019-05-07T12:57:00.101Z,24.33
2019-05-07T12:59:32.218Z,23.54
2019-05-07T13:02:21.404Z,22.97
2019-05-07T13:04:41.757Z,22.60
2019-05-07T13:07:14.519Z,21.86
2019-05-07T13:09:46.067Z,21.29
2019-05-07T13:12:17.210Z,21.24
2019-05-07T13:14:48.325Z,20.63
2019-05-07T13:17:19.709Z,20.58
2019-05-07T13:19:52.443Z,20.86
2019-05-07T13:22:24.248Z,21.41
2019-05-07T13:24:55.770Z,21.47
2019-05-07T13:27:28.306Z,21.96
2019-05-07T13:30:02.373Z,22.35
2019-05-07T13:32:32.968Z,22.48
2019-05-07T13:35:06.059Z,22.60
2019-05-07T13:37:41.895Z,22.96
2019-05-07T13:40:34.229Z,23.04
2019-05-07T13:43:15.950Z,23.01
2019-05-07T13:45:49.124Z,23.59
2019-05-07T13:48:25.138Z,24.28
2019-05-07T13:50:58.176Z,24.75
2019-05-07T13:53:32.311Z,25.33
2019-05-07T13:56:03.791Z,25.81
2019-05-07T13:58:36.603Z,26.57
2019-05-07T14:01:12.317Z,27.06
2019-05-07T14:03:43.676Z,27.43
2019-05-07T14:06:16.761Z,27.66
2019-05-07T14:08:48.137Z,27.54
2019-05-07T14:11:22.407Z,27.03
2019-05-07T14:13:53.687Z,26.86
2019-05-07T14:16:25.021Z,27.09
2019-05-07T14:18:56.714Z,27.70
2019-05-07T14:21:28.865Z,28.90
2019-05-07T14:24:01.450Z,29.26
2019-05-07T14:26:32.814Z,29.15
2019-05-07T14:29:04.758Z,29.76
2019-05-07T14:31:36.032Z,30.52
2019-05-07T14:34:26.108Z,30.76
2019-05-07T14:37:01.965Z,32.25
2019-05-07T14:39:33.307Z,33.17
2019-05-07T14:42:06.010Z,33.62
2019-05-07T14:44:48.821Z,33.23
2019-05-07T14:47:22.240Z,32.54
2019-05-07T14:49:54.018Z,32.40
2019-05-07T14:52:32.187Z,32.39
2019-05-07T14:54:58.424Z,33.35
2019-05-07T14:57:29.758Z,34.00
2019-05-07T15:00:03.093Z,33.75
2019-05-07T15:02:33.942Z,34.54
2019-05-07T15:05:08.216Z,34.04
2019-05-07T15:07:39.240Z,34.02
2019-05-07T15:10:11.225Z,34.40
2019-05-07T15:12:42.711Z,33.88
2019-05-07T15:15:13.801Z,34.20
2019-05-07T15:17:49.255Z,34.77
2019-05-07T15:20:22.408Z,35.65
2019-05-07T15:22:55.203Z,35.27
2019-05-07T15:25:26.578Z,35.34
2019-05-07T15:27:57.979Z,35.49
2019-05-07T15:30:32.486Z,35.48
2019-05-07T15:33:03.684Z,35.44
2019-05-07T15:35:34.996Z,35.62
2019-05-07T15:38:06.425Z,35.51
2019-05-07T15:40:37.853Z,35.52
2019-05-07T15:43:09.068Z,35.93
2019-05-07T15:45:40.065Z,36.11
2019-05-07T15:48:12.727Z,35.69
2019-05-07T15:50:44.285Z,35.79
2019-05-07T15:53:21.904Z,36.07
2019-05-07T15:55:53.117Z,36.27
2019-05-07T15:58:24.259Z,36.41
2019-05-07T16:00:55.309Z,36.30
2019-05-07T16:03:34.118Z,37.24
2019-05-07T16:06:05.394Z,37.62
2019-05-07T16:08:44.326Z,38.33
2019-05-07T16:11:15.867Z,39.76
2019-05-07T16:14:07.489Z,39.57
2019-05-07T16:16:40.239Z,39.65
2019-05-07T16:19:13.263Z,39.92
2019-05-07T16:21:44.653Z,40.55
2019-05-07T16:24:16.173Z,40.79
2019-05-07T16:26:47.584Z,40.92
2019-05-07T16:29:18.968Z,40.41
2019-05-07T16:31:52.115Z,40.46
2019-05-07T16:34:24.641Z,40.58
2019-05-07T16:36:55.783Z,40.41
2019-05-07T16:39:27.341Z,41.08
2019-05-07T16:41:58.605Z,41.00
2019-05-07T16:44:29.912Z,41.97
2019-05-07T16:47:02.828Z,43.04
2019-05-07T16:49:34.281Z,42.17
2019-05-07T16:52:05.733Z,42.28
2019-05-07T16:54:37.054Z,42.47
2019-05-07T16:57:16.231Z,42.47
2019-05-07T16:59:47.583Z,42.67
2019-05-07T17:02:23.510Z,42.52
2019-05-07T17:05:08.407Z,42.19
2019-05-07T17:07:47.206Z,42.38
2019-05-07T17:10:18.757Z,41.99
2019-05-07T17:12:52.244Z,42.19
2019-05-07T17:15:22.977Z,42.38
2019-05-07T17:18:00.053Z,42.18
2019-05-07T17:20:32.683Z,42.47
2019-05-07T17:23:06.385Z,42.15
2019-05-07T17:25:37.906Z,42.19
2019-05-07T17:28:09.378Z,42.59
2019-05-07T17:30:42.149Z,43.00
2019-05-07T17:33:13.301Z,42.97
2019-05-07T17:35:47.419Z,42.86
2019-05-07T17:38:20.065Z,42.29
2019-05-07T17:40:52.193Z,42.28
2019-05-07T17:43:23.506Z,42.22
2019-05-07T17:45:54.567Z,42.19
2019-05-07T17:48:25.943Z,42.20
2019-05-07T17:50:58.830Z,41.88
2019-05-07T17:53:32.001Z,41.76
2019-05-07T17:56:03.234Z,41.50
2019-05-07T17:58:34.916Z,41.36
2019-05-07T18:01:06.751Z,41.24
2019-05-07T18:03:42.821Z,41.27
2019-05-07T18:06:13.784Z,41.11
2019-05-07T18:08:45.283Z,41.07
2019-05-07T18:11:21.172Z,41.04
2019-05-07T18:13:51.750Z,41.04
2019-05-07T18:16:27.348Z,41.49
2019-05-07T18:18:58.498Z,41.54
2019-05-07T18:21:29.642Z,41.65
2019-05-07T18:24:13.307Z,41.76
2019-05-07T18:26:35.313Z,41.81
2019-05-07T18:29:06.343Z,41.87
2019-05-07T18:31:51.230Z,41.80
2019-05-07T18:34:22.477Z,41.99
2019-05-07T18:36:53.999Z,42.06
2019-05-07T18:39:25.502Z,42.11
2019-05-07T18:41:57.044Z,42.01
2019-05-07T18:44:28.189Z,42.05
2019-05-07T18:46:59.441Z,42.71
2019-05-07T18:49:30.514Z,42.82
2019-05-07T18:52:02.882Z,42.86
2019-05-07T18:54:34.236Z,42.95
2019-05-07T18:57:05.460Z,42.93
2019-05-07T18:59:37.530Z,42.97
2019-05-07T19:02:09.193Z,43.19
2019-05-07T19:04:42.227Z,43.15
2019-05-07T19:07:13.542Z,43.24
2019-05-07T19:09:47.729Z,43.39
2019-05-07T19:12:17.930Z,43.54
2019-05-07T19:14:51.629Z,43.53
2019-05-07T19:17:25.532Z,43.54
2019-05-07T19:19:55.474Z,43.51
2019-05-07T19:22:27.097Z,43.29
2019-05-07T19:24:58.521Z,43.18
2019-05-07T19:27:30.024Z,43.19
2019-05-07T19:30:01.842Z,43.32
2019-05-07T19:32:33.799Z,43.48
2019-05-07T19:35:05.755Z,43.57
2019-05-07T19:37:37.616Z,43.76
2019-05-07T19:40:09.071Z,43.98
2019-05-07T19:42:42.625Z,44.08
2019-05-07T19:45:13.438Z,44.16
2019-05-07T19:47:44.987Z,44.36
2019-05-07T19:50:16.548Z,44.50
2019-05-07T19:52:47.975Z,44.68
2019-05-07T19:55:21.835Z,44.70
2019-05-07T19:57:54.287Z,44.75
2019-05-07T20:00:26.741Z,44.64
2019-05-07T20:02:59.556Z,44.79
2019-05-07T20:05:32.340Z,44.82
2019-05-07T20:08:04.778Z,45.16
2019-05-07T20:10:38.009Z,45.33
2019-05-07T20:13:09.327Z,45.80
2019-05-07T20:15:43.485Z,45.89
2019-05-07T20:18:14.836Z,45.72
2019-05-07T20:20:47.680Z,45.72
2019-05-07T20:23:19.218Z,45.58
2019-05-07T20:25:52.765Z,45.82
2019-05-07T20:28:24.133Z,46.05
2019-05-07T20:30:56.366Z,46.21
2019-05-07T20:33:28.004Z,46.06
2019-05-07T20:35:59.572Z,46.31
2019-05-07T20:38:32.063Z,46.47
2019-05-07T20:41:03.557Z,46.56
2019-05-07T20:43:35.008Z,46.60
2019-05-07T20:46:07.380Z,46.41
2019-05-07T20:48:38.837Z,46.45
2019-05-07T20:51:12.205Z,46.37
2019-05-07T20:54:02.840Z,46.32
2019-05-07T20:56:38.662Z,46.28
2019-05-07T20:59:12.331Z,46.24
2019-05-07T21:01:42.840Z,46.18
2019-05-07T21:04:14.102Z,46.18
2019-05-07T21:06:45.952Z,46.16
2019-05-07T21:09:17.453Z,46.29
2019-05-07T21:11:48.852Z,46.54
2019-05-07T21:14:20.191Z,46.54
2019-05-07T21:16:52.693Z,46.52
2019-05-07T21:19:23.957Z,46.57
2019-05-07T21:21:55.202Z,46.90
2019-05-07T21:24:26.602Z,46.96
2019-05-07T21:26:58.502Z,47.14
2019-05-07T21:29:29.916Z,47.16
2019-05-07T21:32:03.233Z,47.16
2019-05-07T21:34:34.724Z,46.89
2019-05-07T21:37:08.472Z,46.66
2019-05-07T21:39:38.861Z,46.82
2019-05-07T21:42:13.886Z,46.89
2019-05-07T21:44:43.546Z,46.89
2019-05-07T21:47:14.865Z,46.88
2019-05-07T21:49:46.219Z,46.72
2019-05-07T21:52:17.773Z,46.63
2019-05-07T21:54:52.501Z,46.30
2019-05-07T21:57:41.864Z,46.30
2019-05-07T22:00:15.076Z,46.04
2019-05-07T22:02:48.028Z,46.06
2019-05-07T22:05:19.625Z,45.84
2019-05-07T22:07:54.224Z,45.83
2019-05-07T22:10:23.972Z,45.74
2019-05-07T22:12:55.270Z,45.67
2019-05-07T22:15:26.740Z,45.62
2019-05-07T22:17:58.432Z,45.67
2019-05-07T22:20:31.440Z,45.64
2019-05-07T22:23:02.943Z,45.72
2019-05-07T22:25:34.230Z,45.71
2019-05-07T22:28:06.888Z,45.94
2019-05-07T22:30:46.232Z,46.12
2019-05-07T22:33:19.339Z,46.34
2019-05-07T22:35:52.255Z,46.50
2019-05-07T22:38:43.784Z,46.54
2019-05-07T22:41:16.757Z,46.77
2019-05-07T22:43:48.826Z,46.78
2019-05-07T22:46:22.285Z,46.39
2019-05-07T22:48:53.989Z,46.39
2019-05-07T22:51:25.338Z,46.42
2019-05-07T22:53:57.920Z,46.30
2019-05-07T22:56:46.986Z,46.35
2019-05-07T22:59:18.396Z,46.21
2019-05-07T23:01:51.670Z,46.26
2019-05-07T23:04:23.613Z,46.16
2019-05-07T23:06:54.644Z,45.89
2019-05-07T23:09:25.700Z,45.78
2019-05-07T23:11:57.155Z,45.63
2019-05-07T23:14:28.507Z,45.53
2019-05-07T23:17:02.235Z,45.37
2019-05-07T23:19:33.115Z,45.20
2019-05-07T23:22:04.698Z,45.07
2019-05-07T23:24:36.043Z,44.99
2019-05-07T23:27:07.514Z,45.01
2019-05-07T23:29:38.926Z,44.85
2019-05-07T23:32:12.543Z,45.02
2019-05-07T23:34:43.496Z,45.29
2019-05-07T23:37:14.963Z,45.67
2019-05-07T23:39:48.268Z,45.70
2019-05-07T23:42:21.316Z,45.64
2019-05-07T23:44:52.867Z,45.61
2019-05-07T23:47:24.456Z,45.52
2019-05-07T23:49:56.114Z,45.38
2019-05-07T23:52:27.879Z,45.32
2019-05-07T23:54:59.536Z,45.22
2019-05-07T23:57:32.533Z,45.12
